createdAt,value
2019-01-04T00:00:44.014Z,14.97
2019-01-04T00:03:12.504Z,16.17
2019-01-04T00:05:40.962Z,16.37
2019-01-04T00:08:09.430Z,19.70
2019-01-04T00:10:37.914Z,23.73
2019-01-04T00:13:06.368Z,18.60
2019-01-04T00:15:34.868Z,21.13
2019-01-04T00:18:03.342Z,17.67
2019-01-04T00:20:31.968Z,19.77
2019-01-04T00:23:00.699Z,21.93
2019-01-04T00:25:29.228Z,17.63
2019-01-04T00:27:57.700Z,14.10
2019-01-04T00:30:26.171Z,16.93
2019-01-04T00:32:54.631Z,18.37
2019-01-04T00:35:23.114Z,19.60
2019-01-04T00:37:51.592Z,21.87
2019-01-04T00:40:20.146Z,20.23
2019-01-04T00:42:48.600Z,20.23
2019-01-04T00:45:17.089Z,19.90
2019-01-04T00:47:45.586Z,19.13
2019-01-04T00:50:14.137Z,19.80
2019-01-04T00:52:42.693Z,18.97
2019-01-04T00:55:14.318Z,19.67
2019-01-04T00:57:57.725Z,22.20
2019-01-04T01:00:44.320Z,22.63
2019-01-04T01:03:43.652Z,20.03
2019-01-04T01:06:37.286Z,20.97
2019-01-04T01:09:34.823Z,22.10
2019-01-04T01:12:08.209Z,18.30
2019-01-04T01:15:04.160Z,19.13
2019-01-04T01:18:04.605Z,15.50
2019-01-04T01:20:48.156Z,19.67
2019-01-04T01:23:31.922Z,22.80
2019-01-04T01:26:08.737Z,20.70
2019-01-04T01:29:00.177Z,18.03
2019-01-04T01:31:56.107Z,19.17
2019-01-04T01:34:51.733Z,19.90
2019-01-04T01:37:25.879Z,21.30
2019-01-04T01:40:30.830Z,19.43
2019-01-04T01:43:31.433Z,20.90
2019-01-04T01:46:27.231Z,20.27
2019-01-04T01:49:07.533Z,21.03
2019-01-04T01:51:39.087Z,20.73
2019-01-04T01:54:07.563Z,18.70
2019-01-04T01:56:36.302Z,24.67
2019-01-04T01:59:04.846Z,21.20
2019-01-04T02:01:33.329Z,18.57
2019-01-04T02:04:01.811Z,20.30
2019-01-04T02:06:30.274Z,20.13
2019-01-04T02:08:58.757Z,22.77
2019-01-04T02:11:27.635Z,23.13
2019-01-04T02:13:56.126Z,21.30
2019-01-04T02:16:24.736Z,22.37
2019-01-04T02:18:53.242Z,24.40
2019-01-04T02:21:21.794Z,20.47
2019-01-04T02:23:50.263Z,25.80
2019-01-04T02:26:18.729Z,20.90
2019-01-04T02:28:47.198Z,23.13
2019-01-04T02:31:15.691Z,21.63
2019-01-04T02:33:44.235Z,21.77
2019-01-04T02:36:12.698Z,22.57
2019-01-04T02:38:41.181Z,24.13
2019-01-04T02:41:09.640Z,24.63
2019-01-04T02:43:38.130Z,25.70
2019-01-04T02:46:06.805Z,31.43
2019-01-04T02:48:35.298Z,25.33
2019-01-04T02:51:03.776Z,27.03
2019-01-04T02:53:32.248Z,31.97
2019-01-04T02:56:00.707Z,31.60
2019-01-04T02:58:29.212Z,27.67
2019-01-04T03:00:57.673Z,29.37
2019-01-04T03:03:26.221Z,27.73
2019-01-04T03:05:54.703Z,28.47
2019-01-04T03:08:23.190Z,31.47
2019-01-04T03:10:51.674Z,29.17
2019-01-04T03:13:20.180Z,32.13
2019-01-04T03:15:48.646Z,27.67
2019-01-04T03:18:17.144Z,30.83
2019-01-04T03:20:45.839Z,28.10
2019-01-04T03:23:14.370Z,30.00
2019-01-04T03:25:42.849Z,28.70
2019-01-04T03:28:11.335Z,30.27
2019-01-04T03:30:39.807Z,31.27
2019-01-04T03:33:08.301Z,32.13
2019-01-04T03:35:36.759Z,31.27
2019-01-04T03:38:05.250Z,29.07
2019-01-04T03:40:33.738Z,32.53
2019-01-04T03:43:02.210Z,36.70
2019-01-04T03:45:30.692Z,41.87
2019-01-04T03:47:59.160Z,39.33
2019-01-04T03:50:27.714Z,42.00
2019-01-04T03:52:56.185Z,33.80
2019-01-04T03:55:24.669Z,39.33
2019-01-04T03:57:53.147Z,38.47
2019-01-04T04:00:21.635Z,39.63
2019-01-04T04:02:50.103Z,41.57
2019-01-04T04:05:18.589Z,32.83
2019-01-04T04:07:47.052Z,35.23
2019-01-04T04:10:15.538Z,39.27
2019-01-04T04:12:44.017Z,39.80
2019-01-04T04:15:12.508Z,39.37
2019-01-04T04:17:40.960Z,27.70
2019-01-04T04:20:09.456Z,30.17
2019-01-04T04:22:37.936Z,34.77
2019-01-04T04:25:06.478Z,33.27
2019-01-04T04:27:34.951Z,33.80
2019-01-04T04:30:04.252Z,43.80
2019-01-04T04:32:32.737Z,42.60
2019-01-04T04:35:01.198Z,42.27
2019-01-04T04:37:29.666Z,31.73
2019-01-04T04:39:58.153Z,33.13
2019-01-04T04:42:26.622Z,31.97
2019-01-04T04:44:55.202Z,26.93
2019-01-04T04:47:23.669Z,35.17
2019-01-04T04:49:52.162Z,29.07
2019-01-04T04:52:20.624Z,31.93
2019-01-04T04:54:49.146Z,34.83
2019-01-04T04:57:17.668Z,27.33
2019-01-04T04:59:46.182Z,27.60
2019-01-04T05:02:14.679Z,25.40
2019-01-04T05:04:43.163Z,30.23
2019-01-04T05:07:11.638Z,28.67
2019-01-04T05:09:40.116Z,32.10
2019-01-04T05:12:08.577Z,30.17
2019-01-04T05:14:37.065Z,34.07
2019-01-04T05:17:05.551Z,28.80
2019-01-04T05:19:34.024Z,27.97
2019-01-04T05:22:02.566Z,25.27
2019-01-04T05:24:31.050Z,27.73
2019-01-04T05:26:59.541Z,21.80
2019-01-04T05:29:28.009Z,28.10
2019-01-04T05:31:56.569Z,25.67
2019-01-04T05:34:25.157Z,21.63
2019-01-04T05:36:53.701Z,26.80
2019-01-04T05:39:22.170Z,22.80
2019-01-04T05:41:50.655Z,23.27
2019-01-04T05:44:19.128Z,27.53
2019-01-04T05:46:47.617Z,23.40
2019-01-04T05:49:16.094Z,22.73
2019-01-04T05:51:44.583Z,25.87
2019-01-04T05:54:13.056Z,31.17
2019-01-04T05:56:41.537Z,28.20
2019-01-04T05:59:09.995Z,26.73
2019-01-04T06:01:38.476Z,29.73
2019-01-04T06:04:06.950Z,24.70
2019-01-04T06:06:35.422Z,19.83
2019-01-04T06:09:06.516Z,21.47
2019-01-04T06:11:35.012Z,17.00
2019-01-04T06:14:03.471Z,21.37
2019-01-04T06:16:51.283Z,19.40
2019-01-04T06:19:19.747Z,22.73
2019-01-04T06:21:48.233Z,24.60
2019-01-04T06:24:16.748Z,24.40
2019-01-04T06:26:45.218Z,23.73
2019-01-04T06:29:13.754Z,21.00
2019-01-04T06:31:42.265Z,25.53
2019-01-04T06:34:10.736Z,21.40
2019-01-04T06:36:39.216Z,20.20
2019-01-04T06:39:07.962Z,19.97
2019-01-04T06:41:36.427Z,27.07
2019-01-04T06:44:04.896Z,18.57
2019-01-04T06:46:33.384Z,14.77
2019-01-04T06:49:01.852Z,15.03
2019-01-04T06:51:30.354Z,13.00
2019-01-04T06:53:58.798Z,10.97
2019-01-04T06:56:27.280Z,11.73
2019-01-04T06:58:55.744Z,10.83
2019-01-04T07:01:24.206Z,13.67
2019-01-04T07:03:52.685Z,13.47
2019-01-04T07:06:21.219Z,9.87
2019-01-04T07:08:49.712Z,10.03
2019-01-04T07:11:18.181Z,9.70
2019-01-04T07:13:46.659Z,15.27
2019-01-04T07:16:15.205Z,10.93
2019-01-04T07:18:43.677Z,10.30
2019-01-04T07:21:12.136Z,9.30
2019-01-04T07:23:40.628Z,8.83
2019-01-04T07:26:09.100Z,11.47
2019-01-04T07:28:37.588Z,10.30
2019-01-04T07:31:06.035Z,9.40
2019-01-04T07:33:34.538Z,11.97
2019-01-04T07:36:03.004Z,9.23
2019-01-04T07:38:31.482Z,11.17
2019-01-04T07:41:01.450Z,10.57
2019-01-04T07:43:30.178Z,11.00
2019-01-04T07:45:58.794Z,10.77
2019-01-04T07:48:27.329Z,10.40
2019-01-04T07:50:55.796Z,10.63
2019-01-04T07:53:24.300Z,12.70
2019-01-04T07:55:52.763Z,14.37
2019-01-04T07:58:21.239Z,11.03
2019-01-04T08:00:49.727Z,10.10
2019-01-04T08:03:18.216Z,11.87
2019-01-04T08:05:46.675Z,10.70
2019-01-04T08:08:15.181Z,10.43
2019-01-04T08:10:43.780Z,10.57
2019-01-04T08:13:12.247Z,10.77
2019-01-04T08:15:40.724Z,10.80
2019-01-04T08:18:09.204Z,11.07
2019-01-04T08:20:37.685Z,10.40
2019-01-04T08:23:06.155Z,13.27
2019-01-04T08:25:34.710Z,13.90
2019-01-04T08:28:03.169Z,12.40
2019-01-04T08:30:31.654Z,10.03
2019-01-04T08:33:00.114Z,10.10
2019-01-04T08:35:28.602Z,12.97
2019-01-04T08:37:57.080Z,11.30
2019-01-04T08:40:25.606Z,13.60
2019-01-04T08:42:54.060Z,11.77
2019-01-04T08:45:22.553Z,9.27
2019-01-04T08:47:51.076Z,13.70
2019-01-04T08:50:19.589Z,13.10
2019-01-04T08:52:48.079Z,13.37
2019-01-04T08:55:16.548Z,12.23
2019-01-04T08:57:45.059Z,13.90
2019-01-04T09:00:13.764Z,14.67
2019-01-04T09:02:42.239Z,15.63
2019-01-04T09:05:10.724Z,15.47
2019-01-04T09:07:39.188Z,14.23
2019-01-04T09:10:08.214Z,16.50
2019-01-04T09:12:36.689Z,18.83
2019-01-04T09:15:07.601Z,15.57
2019-01-04T09:17:36.055Z,17.20
2019-01-04T09:20:07.685Z,17.03
2019-01-04T09:22:36.219Z,14.23
2019-01-04T09:25:06.405Z,18.90
2019-01-04T09:27:34.864Z,18.10
2019-01-04T09:30:04.692Z,20.13
2019-01-04T09:32:33.281Z,20.97
2019-01-04T09:35:01.769Z,20.30
2019-01-04T09:37:30.241Z,19.07
2019-01-04T09:39:58.735Z,20.07
2019-01-04T09:42:27.233Z,22.80
2019-01-04T09:44:55.718Z,21.70
2019-01-04T09:47:24.191Z,20.03
2019-01-04T09:49:52.717Z,17.63
2019-01-04T09:52:21.213Z,21.67
2019-01-04T09:54:49.681Z,14.43
2019-01-04T09:57:23.427Z,18.23
2019-01-04T09:59:48.438Z,18.77
2019-01-04T10:02:16.919Z,19.93
2019-01-04T10:04:45.385Z,18.30
2019-01-04T10:07:13.869Z,17.20
2019-01-04T10:09:42.340Z,19.67
2019-01-04T10:12:10.807Z,15.70
2019-01-04T10:14:39.269Z,15.07
2019-01-04T10:17:07.751Z,14.50
2019-01-04T10:19:36.284Z,16.27
2019-01-04T10:22:04.840Z,13.80
2019-01-04T10:24:33.317Z,14.23
2019-01-04T10:27:01.852Z,13.67
2019-01-04T10:29:30.341Z,13.87
2019-01-04T10:31:58.890Z,14.83
2019-01-04T10:34:27.351Z,16.23
2019-01-04T10:36:55.869Z,15.80
2019-01-04T10:39:24.332Z,15.50
2019-01-04T10:41:52.818Z,15.60
2019-01-04T10:44:21.274Z,18.77
2019-01-04T10:46:49.794Z,13.00
2019-01-04T10:49:18.265Z,17.40
2019-01-04T10:51:46.744Z,14.60
2019-01-04T10:54:15.215Z,15.93
2019-01-04T10:56:43.704Z,16.93
2019-01-04T10:59:12.173Z,12.97
2019-01-04T11:01:40.676Z,14.37
2019-01-04T11:04:09.140Z,16.90
2019-01-04T11:06:37.630Z,13.33
2019-01-04T11:09:08.178Z,14.33
2019-01-04T11:11:36.660Z,15.60
2019-01-04T11:14:05.124Z,11.33
2019-01-04T11:16:33.616Z,15.27
2019-01-04T11:19:02.106Z,14.07
2019-01-04T11:21:30.571Z,13.77
2019-01-04T11:24:07.798Z,12.07
2019-01-04T11:26:39.384Z,14.83
2019-01-04T11:29:13.749Z,12.73
2019-01-04T11:31:57.234Z,21.47
2019-01-04T11:34:34.484Z,13.63
2019-01-04T11:37:17.853Z,12.60
2019-01-04T11:39:49.437Z,13.53
2019-01-04T11:42:29.755Z,14.07
2019-01-04T11:45:04.001Z,13.83
2019-01-04T11:47:52.290Z,13.30
2019-01-04T11:50:41.783Z,12.33
2019-01-04T11:53:13.223Z,12.73
2019-01-04T11:55:41.811Z,14.03
2019-01-04T11:58:10.318Z,11.57
2019-01-04T12:00:38.876Z,12.73
2019-01-04T12:03:07.331Z,14.07
2019-01-04T12:05:35.841Z,11.43
2019-01-04T12:08:04.321Z,11.97
2019-01-04T12:10:32.824Z,16.33
2019-01-04T12:13:01.299Z,12.23
2019-01-04T12:15:29.853Z,12.73
2019-01-04T12:17:58.400Z,14.50
2019-01-04T12:20:26.889Z,10.70
2019-01-04T12:22:55.365Z,11.97
2019-01-04T12:25:23.864Z,12.47
2019-01-04T12:27:52.333Z,9.67
2019-01-04T12:30:20.802Z,12.97
2019-01-04T12:32:49.301Z,10.67
2019-01-04T12:35:17.784Z,10.90
2019-01-04T12:37:46.347Z,12.93
2019-01-04T12:40:14.810Z,13.70
2019-01-04T12:42:43.289Z,14.50
2019-01-04T12:45:11.817Z,13.27
2019-01-04T12:47:40.318Z,12.73
2019-01-04T12:50:08.971Z,10.20
2019-01-04T12:52:39.092Z,12.33
2019-01-04T12:55:07.756Z,11.73
2019-01-04T12:57:36.240Z,12.53
2019-01-04T13:00:07.892Z,9.50
2019-01-04T13:02:36.346Z,11.37
2019-01-04T13:05:05.180Z,12.30
2019-01-04T13:07:33.658Z,8.00
2019-01-04T13:10:02.140Z,9.00
2019-01-04T13:12:30.596Z,8.77
2019-01-04T13:14:59.074Z,9.03
2019-01-04T13:17:27.559Z,7.20
2019-01-04T13:19:56.038Z,8.47
2019-01-04T13:22:24.504Z,9.53
2019-01-04T13:24:52.966Z,10.57
2019-01-04T13:27:22.617Z,8.43
2019-01-04T13:29:51.230Z,8.67
2019-01-04T13:32:19.744Z,10.90
2019-01-04T13:34:48.190Z,7.83
2019-01-04T13:37:16.688Z,9.53
2019-01-04T13:39:45.163Z,11.00
2019-01-04T13:42:13.742Z,9.90
2019-01-04T13:44:42.221Z,10.47
2019-01-04T13:47:10.727Z,8.57
2019-01-04T13:49:39.177Z,7.60
2019-01-04T13:52:07.337Z,8.30
2019-01-04T13:54:35.815Z,8.67
2019-01-04T13:57:05.045Z,7.43
2019-01-04T13:59:33.535Z,7.20
2019-01-04T14:02:02.007Z,8.63
2019-01-04T14:04:30.493Z,7.97
2019-01-04T14:06:58.973Z,7.67
2019-01-04T14:09:27.439Z,9.47
2019-01-04T14:11:55.917Z,8.20
2019-01-04T14:14:26.213Z,6.83
2019-01-04T14:16:54.705Z,6.33
2019-01-04T14:19:23.180Z,6.60
2019-01-04T14:21:51.657Z,7.30
2019-01-04T14:24:20.127Z,6.77
2019-01-04T14:26:48.601Z,6.57
2019-01-04T14:29:17.074Z,6.33
2019-01-04T14:31:45.565Z,6.40
2019-01-04T14:34:14.070Z,5.40
2019-01-04T14:36:42.587Z,6.00
2019-01-04T14:39:11.044Z,6.43
2019-01-04T14:41:39.522Z,5.90
2019-01-04T14:44:07.997Z,6.10
2019-01-04T14:46:36.490Z,6.67
2019-01-04T14:49:05.034Z,7.23
2019-01-04T14:51:33.500Z,6.97
2019-01-04T14:54:01.967Z,6.87
2019-01-04T14:56:30.459Z,6.07
2019-01-04T14:58:59.084Z,6.77
2019-01-04T15:01:27.561Z,5.77
2019-01-04T15:03:56.034Z,5.53
2019-01-04T15:06:24.508Z,5.53
2019-01-04T15:08:52.977Z,7.40
2019-01-04T15:11:21.442Z,7.30
2019-01-04T15:13:49.924Z,7.77
2019-01-04T15:16:18.380Z,7.67
2019-01-04T15:18:46.853Z,7.37
2019-01-04T15:21:15.310Z,8.23
2019-01-04T15:23:43.765Z,8.30
2019-01-04T15:26:12.246Z,6.87
2019-01-04T15:28:40.714Z,8.70
2019-01-04T15:31:09.220Z,7.53
2019-01-04T15:33:37.746Z,8.27
2019-01-04T15:36:06.232Z,7.90
2019-01-04T15:38:36.331Z,9.20
2019-01-04T15:41:04.912Z,9.03
2019-01-04T15:43:33.375Z,8.27
2019-01-04T15:46:01.857Z,7.67
2019-01-04T15:48:30.337Z,8.97
2019-01-04T15:50:58.840Z,8.60
2019-01-04T15:53:27.292Z,8.97
2019-01-04T15:55:55.779Z,8.90
2019-01-04T15:58:24.234Z,9.23
2019-01-04T16:00:52.689Z,9.23
2019-01-04T16:03:21.171Z,10.50
2019-01-04T16:05:49.637Z,9.97
2019-01-04T16:08:18.123Z,13.43
2019-01-04T16:10:46.603Z,10.97
2019-01-04T16:13:15.170Z,12.13
2019-01-04T16:15:43.627Z,11.00
2019-01-04T16:18:12.199Z,10.77
2019-01-04T16:20:40.652Z,10.13
2019-01-04T16:23:09.133Z,12.23
2019-01-04T16:25:37.606Z,11.03
2019-01-04T16:28:06.077Z,11.07
2019-01-04T16:30:34.537Z,8.90
2019-01-04T16:33:03.017Z,10.97
2019-01-04T16:35:31.485Z,11.70
2019-01-04T16:37:59.967Z,11.07
2019-01-04T16:40:28.442Z,10.07
2019-01-04T16:42:56.929Z,10.67
2019-01-04T16:45:25.409Z,10.80
2019-01-04T16:47:55.664Z,10.73
2019-01-04T16:50:24.346Z,12.97
2019-01-04T16:52:52.826Z,10.40
2019-01-04T16:55:21.282Z,11.17
2019-01-04T16:57:49.765Z,14.90
2019-01-04T17:00:18.296Z,11.30
2019-01-04T17:02:46.789Z,11.77
2019-01-04T17:05:15.423Z,12.40
2019-01-04T17:07:43.914Z,11.23
2019-01-04T17:10:12.381Z,10.87
2019-01-04T17:12:40.935Z,11.23
2019-01-04T17:15:09.526Z,10.23
2019-01-04T17:17:38.011Z,11.20
2019-01-04T17:20:06.922Z,13.37
2019-01-04T17:22:35.409Z,11.13
2019-01-04T17:25:04.909Z,10.37
2019-01-04T17:27:33.402Z,10.57
2019-01-04T17:30:01.971Z,12.40
2019-01-04T17:32:30.561Z,13.77
2019-01-04T17:34:59.046Z,11.40
2019-01-04T17:37:27.514Z,9.90
2019-01-04T17:39:55.986Z,10.27
2019-01-04T17:42:24.485Z,12.53
2019-01-04T17:44:52.936Z,10.63
2019-01-04T17:47:21.443Z,10.67
2019-01-04T17:49:49.902Z,11.23
2019-01-04T17:52:18.399Z,11.10
2019-01-04T17:54:46.876Z,11.93
2019-01-04T17:57:15.353Z,10.97
2019-01-04T17:59:43.837Z,10.83
2019-01-04T18:02:12.307Z,11.27
2019-01-04T18:04:40.806Z,10.83
2019-01-04T18:07:09.277Z,11.93
2019-01-04T18:09:37.847Z,11.23
2019-01-04T18:12:06.336Z,11.80
2019-01-04T18:14:34.811Z,10.80
2019-01-04T18:17:03.264Z,11.07
2019-01-04T18:19:31.756Z,10.53
2019-01-04T18:22:00.264Z,11.07
2019-01-04T18:24:28.720Z,11.20
2019-01-04T18:26:57.202Z,12.07
2019-01-04T18:29:25.685Z,13.00
2019-01-04T18:31:54.186Z,9.83
2019-01-04T18:34:22.662Z,11.13
2019-01-04T18:36:51.152Z,11.83
2019-01-04T18:39:19.618Z,11.53
2019-01-04T18:41:48.105Z,12.57
2019-01-04T18:44:16.577Z,13.60
2019-01-04T18:46:45.057Z,12.50
2019-01-04T18:49:13.512Z,12.43
2019-01-04T18:51:42.018Z,11.97
2019-01-04T18:54:10.484Z,10.50
2019-01-04T18:56:38.973Z,11.60
2019-01-04T18:59:07.516Z,11.23
2019-01-04T19:01:36.026Z,10.27
2019-01-04T19:04:04.505Z,11.63
2019-01-04T19:06:32.984Z,11.40
2019-01-04T19:09:01.472Z,11.50
2019-01-04T19:11:30.028Z,11.90
2019-01-04T19:13:58.498Z,11.90
2019-01-04T19:16:26.962Z,9.83
2019-01-04T19:18:55.443Z,10.20
2019-01-04T19:21:23.923Z,13.43
2019-01-04T19:23:52.538Z,12.20
2019-01-04T19:26:21.061Z,12.60
2019-01-04T19:28:49.543Z,12.23
2019-01-04T19:31:18.050Z,12.10
2019-01-04T19:33:46.538Z,13.27
2019-01-04T19:36:15.025Z,12.97
2019-01-04T19:38:43.641Z,11.90
2019-01-04T19:41:12.113Z,14.27
2019-01-04T19:43:40.598Z,11.63
2019-01-04T19:46:09.145Z,11.30
2019-01-04T19:48:37.646Z,13.13
2019-01-04T19:51:06.139Z,12.50
2019-01-04T19:53:34.597Z,14.40
2019-01-04T19:56:03.219Z,12.27
2019-01-04T19:58:31.683Z,13.63
2019-01-04T20:01:00.161Z,12.87
2019-01-04T20:03:28.643Z,12.63
2019-01-04T20:06:36.713Z,14.37
2019-01-04T20:09:33.477Z,13.50
2019-01-04T20:12:44.755Z,11.30
2019-01-04T20:15:53.691Z,14.27
2019-01-04T20:18:29.790Z,11.60
2019-01-04T20:20:59.919Z,12.87
2019-01-04T20:23:46.457Z,13.87
2019-01-04T20:26:31.632Z,14.43
2019-01-04T20:29:13.463Z,12.73
2019-01-04T20:31:43.631Z,12.07
2019-01-04T20:34:13.745Z,13.57
2019-01-04T20:36:50.075Z,14.10
2019-01-04T20:39:36.345Z,13.47
2019-01-04T20:42:23.002Z,11.03
2019-01-04T20:44:55.815Z,12.37
2019-01-04T20:47:42.295Z,14.20
2019-01-04T20:50:18.134Z,12.20
2019-01-04T20:53:03.655Z,13.00
2019-01-04T20:55:50.084Z,13.43
2019-01-04T20:58:36.236Z,12.63
2019-01-04T21:01:12.096Z,13.97
2019-01-04T21:03:53.968Z,12.87
2019-01-04T21:06:39.069Z,13.00
2019-01-04T21:09:11.873Z,13.27
2019-01-04T21:11:47.505Z,15.30
2019-01-04T21:14:33.894Z,13.43
2019-01-04T21:17:20.244Z,11.70
2019-01-04T21:19:56.308Z,12.13
2019-01-04T21:22:26.414Z,16.87
2019-01-04T21:25:05.670Z,12.23
2019-01-04T21:27:52.335Z,12.47
2019-01-04T21:30:31.592Z,11.90
2019-01-04T21:33:04.415Z,11.57
2019-01-04T21:35:34.548Z,10.17
2019-01-04T21:38:19.984Z,9.60
2019-01-04T21:40:53.091Z,10.53
2019-01-04T21:43:25.605Z,10.43
2019-01-04T21:45:58.423Z,9.90
2019-01-04T21:48:28.543Z,9.70
2019-01-04T21:51:01.610Z,8.80
2019-01-04T21:53:43.962Z,11.57
2019-01-04T21:56:14.059Z,9.53
2019-01-04T21:59:02.503Z,9.53
2019-01-04T22:01:35.579Z,10.80
2019-01-04T22:04:08.384Z,8.30
2019-01-04T22:06:47.575Z,9.27
2019-01-04T22:09:23.707Z,9.60
2019-01-04T22:11:56.510Z,9.17
2019-01-04T22:14:42.967Z,10.47
2019-01-04T22:17:28.117Z,9.13
2019-01-04T22:19:58.219Z,8.43
2019-01-04T22:22:31.247Z,8.67
2019-01-04T22:25:01.384Z,7.40
2019-01-04T22:27:33.905Z,7.63
2019-01-04T22:30:13.123Z,7.10
2019-01-04T22:32:55.032Z,8.17
2019-01-04T22:35:30.888Z,7.10
2019-01-04T22:38:03.715Z,7.83
2019-01-04T22:40:36.547Z,6.50
2019-01-04T22:43:12.368Z,7.33
2019-01-04T22:45:57.245Z,6.07
2019-01-04T22:48:45.648Z,7.33
2019-01-04T22:51:27.898Z,7.20
2019-01-04T22:54:07.208Z,8.23
2019-01-04T22:56:52.169Z,7.60
2019-01-04T22:59:38.332Z,8.37
2019-01-04T23:02:11.601Z,6.73
2019-01-04T23:04:56.639Z,5.87
2019-01-04T23:07:26.758Z,5.90
2019-01-04T23:09:59.441Z,6.20
2019-01-04T23:12:45.969Z,6.07
2019-01-04T23:15:19.995Z,7.63
2019-01-04T23:18:02.229Z,7.73
2019-01-04T23:20:44.708Z,6.67
2019-01-04T23:23:30.785Z,7.13
2019-01-04T23:26:03.766Z,5.60
2019-01-04T23:28:48.610Z,6.90
2019-01-04T23:31:21.494Z,5.57
2019-01-04T23:34:07.914Z,5.70
2019-01-04T23:36:40.742Z,4.87
2019-01-04T23:39:10.860Z,5.20
2019-01-04T23:41:41.034Z,5.60
2019-01-04T23:44:11.143Z,4.87
2019-01-04T23:46:41.246Z,4.10
2019-01-04T23:49:11.357Z,3.70
2019-01-04T23:51:41.600Z,4.50
2019-01-04T23:54:11.715Z,4.77
2019-01-04T23:56:44.541Z,4.67
2019-01-04T23:59:20.643Z,4.00
